createdAt,value
2022-09-28T00:00:41.995Z,3.67
2022-09-28T00:03:09.277Z,4.75
2022-09-28T00:05:35.838Z,2.75
2022-09-28T00:08:02.364Z,3.88
2022-09-28T00:10:28.902Z,2.50
2022-09-28T00:12:55.526Z,2.22
2022-09-28T00:15:22.527Z,5.45
2022-09-28T00:17:49.023Z,2.53
2022-09-28T00:20:17.262Z,2.40
2022-09-28T00:22:43.802Z,2.53
2022-09-28T00:25:10.408Z,3.38
2022-09-28T00:27:36.901Z,3.83
2022-09-28T00:30:04.364Z,2.70
2022-09-28T00:32:30.820Z,3.45
2022-09-28T00:34:57.263Z,4.32
2022-09-28T00:37:23.809Z,2.40
2022-09-28T00:39:50.524Z,4.60
2022-09-28T00:42:22.869Z,5.95
2022-09-28T00:44:54.209Z,2.13
2022-09-28T00:47:31.204Z,2.92
2022-09-28T00:53:19.872Z,3.83
2022-09-28T00:55:54.017Z,3.50
2022-09-28T00:58:29.138Z,4.28
2022-09-28T01:00:58.098Z,5.13
2022-09-28T01:03:26.598Z,5.05
2022-09-28T01:05:54.921Z,9.13
2022-09-28T01:08:23.414Z,7.97
2022-09-28T01:10:51.209Z,4.25
2022-09-28T01:13:20.034Z,4.85
2022-09-28T01:15:58.558Z,4.80
2022-09-28T01:18:37.861Z,5.63
2022-09-28T01:21:25.141Z,8.85
2022-09-28T01:24:13.616Z,6.03
2022-09-28T01:27:14.648Z,9.80
2022-09-28T01:30:02.052Z,5.32
2022-09-28T01:32:54.603Z,4.82
2022-09-28T01:35:28.427Z,5.60
2022-09-28T01:38:10.387Z,8.82
2022-09-28T01:40:37.650Z,7.03
2022-09-28T01:43:08.877Z,9.15
2022-09-28T01:45:48.879Z,5.53
2022-09-28T01:48:25.591Z,9.30
2022-09-28T01:50:57.673Z,5.10
2022-09-28T01:53:35.198Z,5.88
2022-09-28T01:56:09.064Z,8.90
2022-09-28T01:58:46.725Z,10.57
2022-09-28T02:01:27.965Z,7.93
2022-09-28T02:04:03.163Z,9.45
2022-09-28T02:06:38.841Z,7.32
2022-09-28T02:09:18.279Z,4.32
2022-09-28T02:11:50.465Z,5.28
2022-09-28T02:14:19.659Z,7.95
2022-09-28T02:16:54.242Z,7.88
2022-09-28T02:19:27.384Z,9.05
2022-09-28T02:21:59.681Z,10.38
2022-09-28T02:24:39.565Z,7.40
2022-09-28T02:27:31.217Z,8.90
2022-09-28T02:29:57.740Z,9.88
2022-09-28T02:32:25.983Z,12.93
2022-09-28T02:34:52.419Z,8.02
2022-09-28T02:37:18.887Z,9.55
2022-09-28T02:39:45.386Z,11.60
2022-09-28T02:42:25.576Z,11.82
2022-09-28T02:45:13.122Z,8.77
2022-09-28T02:48:02.343Z,11.57
2022-09-28T02:50:53.820Z,11.02
2022-09-28T02:53:49.116Z,12.52
2022-09-28T02:56:31.805Z,12.95
2022-09-28T02:59:11.384Z,11.50
2022-09-28T03:01:51.239Z,13.05
2022-09-28T03:04:44.660Z,12.65
2022-09-28T03:07:27.093Z,14.80
2022-09-28T03:10:24.391Z,16.63
2022-09-28T03:12:53.544Z,16.88
2022-09-28T03:15:31.780Z,14.93
2022-09-28T03:17:59.083Z,16.80
2022-09-28T03:20:26.812Z,12.55
2022-09-28T03:23:19.651Z,15.63
2022-09-28T03:25:40.821Z,15.15
2022-09-28T03:28:07.297Z,17.52
2022-09-28T03:30:33.880Z,16.35
2022-09-28T03:33:00.766Z,13.75
2022-09-28T03:35:27.198Z,17.40
2022-09-28T03:37:57.092Z,16.10
2022-09-28T03:40:24.047Z,18.75
2022-09-28T03:42:50.594Z,21.65
2022-09-28T03:45:17.080Z,22.48
2022-09-28T03:47:47.418Z,24.20
2022-09-28T03:50:14.654Z,22.95
2022-09-28T03:52:41.382Z,24.50
2022-09-28T03:55:08.273Z,22.92
2022-09-28T03:57:34.715Z,22.75
2022-09-28T04:00:01.405Z,19.23
2022-09-28T04:02:27.855Z,19.77
2022-09-28T04:04:54.390Z,17.88
2022-09-28T04:07:20.826Z,21.67
2022-09-28T04:09:47.237Z,14.63
2022-09-28T04:12:13.661Z,14.55
2022-09-28T04:14:40.163Z,19.40
2022-09-28T04:17:07.267Z,19.45
2022-09-28T04:19:33.825Z,21.77
2022-09-28T04:22:01.466Z,14.68
2022-09-28T04:24:28.087Z,18.23
2022-09-28T04:27:14.525Z,17.90
2022-09-28T04:29:43.085Z,15.45
2022-09-28T04:32:10.406Z,18.85
2022-09-28T04:34:40.676Z,17.92
2022-09-28T04:37:09.757Z,13.85
2022-09-28T04:39:36.189Z,16.67
2022-09-28T04:42:02.664Z,16.33
2022-09-28T04:44:29.069Z,16.05
2022-09-28T04:46:56.160Z,18.17
2022-09-28T04:49:24.433Z,16.60
2022-09-28T04:51:50.849Z,14.25
2022-09-28T04:54:17.422Z,9.40
2022-09-28T04:56:43.861Z,14.07
2022-09-28T04:59:10.385Z,10.80
2022-09-28T05:01:37.033Z,14.57
2022-09-28T05:04:03.641Z,17.38
2022-09-28T05:06:30.773Z,13.20
2022-09-28T05:08:57.538Z,8.90
2022-09-28T05:11:24.172Z,11.52
2022-09-28T05:13:50.747Z,14.65
2022-09-28T05:16:17.562Z,16.70
2022-09-28T05:18:44.074Z,8.98
2022-09-28T05:21:12.862Z,15.45
2022-09-28T05:23:40.107Z,14.70
2022-09-28T05:26:07.372Z,18.23
2022-09-28T05:28:34.079Z,23.90
2022-09-28T05:31:01.984Z,16.08
2022-09-28T05:33:29.068Z,16.08
2022-09-28T05:36:00.315Z,13.85
2022-09-28T05:38:28.567Z,15.23
2022-09-28T05:40:55.309Z,11.63
2022-09-28T05:43:21.912Z,13.27
2022-09-28T05:45:51.629Z,10.93
2022-09-28T05:48:21.766Z,9.25
2022-09-28T05:50:52.521Z,9.60
2022-09-28T05:53:19.064Z,13.05
2022-09-28T05:55:45.546Z,10.88
2022-09-28T05:58:12.052Z,14.30
2022-09-28T06:00:38.506Z,13.38
2022-09-28T06:03:12.129Z,11.35
2022-09-28T06:05:39.619Z,12.48
2022-09-28T06:08:08.341Z,12.25
2022-09-28T06:10:35.053Z,12.40
2022-09-28T06:13:01.905Z,11.15
2022-09-28T06:15:30.800Z,8.55
2022-09-28T06:18:06.231Z,10.93
2022-09-28T06:20:35.685Z,11.07
2022-09-28T06:23:02.179Z,12.88
2022-09-28T06:25:28.926Z,15.73
2022-09-28T06:28:03.159Z,11.32
2022-09-28T06:30:31.448Z,11.43
2022-09-28T06:32:59.310Z,7.93
2022-09-28T06:35:27.834Z,11.32
2022-09-28T06:37:54.351Z,9.35
2022-09-28T06:40:21.763Z,13.98
2022-09-28T06:43:10.048Z,9.77
2022-09-28T06:45:37.960Z,11.05
2022-09-28T06:48:05.088Z,12.70
2022-09-28T06:50:40.063Z,8.70
2022-09-28T06:53:09.390Z,10.18
2022-09-28T06:55:39.565Z,11.07
2022-09-28T06:58:09.481Z,13.02
2022-09-28T07:00:37.792Z,10.32
2022-09-28T07:03:15.938Z,11.48
2022-09-28T07:05:45.350Z,8.98
2022-09-28T07:08:12.677Z,11.40
2022-09-28T07:10:44.615Z,6.78
2022-09-28T07:13:35.188Z,11.25
2022-09-28T07:16:01.373Z,8.50
2022-09-28T07:18:29.932Z,6.70
2022-09-28T07:20:57.378Z,8.35
2022-09-28T07:23:27.416Z,9.25
2022-09-28T07:25:54.327Z,8.38
2022-09-28T07:28:21.695Z,11.73
2022-09-28T07:30:48.266Z,10.18
2022-09-28T07:33:17.091Z,11.80
2022-09-28T07:35:55.310Z,10.00
2022-09-28T07:38:21.928Z,11.18
2022-09-28T07:41:06.938Z,12.00
2022-09-28T07:43:33.401Z,13.23
2022-09-28T07:45:59.893Z,9.70
2022-09-28T07:48:26.439Z,12.77
2022-09-28T07:50:57.259Z,12.25
2022-09-28T07:53:25.445Z,7.60
2022-09-28T07:55:52.672Z,10.88
2022-09-28T07:58:20.322Z,9.40
2022-09-28T08:00:48.565Z,7.07
2022-09-28T08:03:17.100Z,17.05
2022-09-28T08:05:43.669Z,6.60
2022-09-28T08:08:10.651Z,8.25
2022-09-28T08:10:37.802Z,7.97
2022-09-28T08:13:06.521Z,7.10
2022-09-28T08:15:36.989Z,7.22
2022-09-28T08:18:04.690Z,6.80
2022-09-28T08:20:51.854Z,6.13
2022-09-28T08:23:20.334Z,6.57
2022-09-28T08:25:51.362Z,9.20
2022-09-28T08:28:18.441Z,10.70
2022-09-28T08:30:45.837Z,7.45
2022-09-28T08:33:17.933Z,8.40
2022-09-28T08:35:45.906Z,8.27
2022-09-28T08:38:13.157Z,6.40
2022-09-28T08:40:58.273Z,10.50
2022-09-28T08:43:43.721Z,7.57
2022-09-28T08:46:12.482Z,7.35
2022-09-28T08:49:20.565Z,7.25
2022-09-28T08:51:49.637Z,7.03
2022-09-28T08:55:09.844Z,6.15
2022-09-28T09:00:09.571Z,4.47
2022-09-28T09:02:39.787Z,4.65
2022-09-28T09:05:14.764Z,6.40
2022-09-28T09:08:17.654Z,6.88
2022-09-28T09:10:50.709Z,6.78
2022-09-28T09:13:23.546Z,6.53
2022-09-28T09:16:01.965Z,4.35
2022-09-28T09:18:37.534Z,4.40
2022-09-28T09:21:29.587Z,5.45
2022-09-28T09:24:47.965Z,10.48
2022-09-28T09:27:18.734Z,5.70
2022-09-28T09:29:59.369Z,5.15
2022-09-28T09:32:54.603Z,9.05
2022-09-28T09:38:28.487Z,3.70
2022-09-28T09:44:10.181Z,4.10
2022-09-28T09:46:57.678Z,3.10
2022-09-28T09:49:36.227Z,3.50
2022-09-28T09:52:05.850Z,6.72
2022-09-28T09:54:38.270Z,5.05
2022-09-28T09:57:26.044Z,3.10
2022-09-28T09:59:53.183Z,4.13
2022-09-28T10:02:27.912Z,4.30
2022-09-28T10:05:23.586Z,4.32
2022-09-28T10:07:49.993Z,4.15
2022-09-28T10:10:37.991Z,5.78
2022-09-28T10:13:05.124Z,3.00
2022-09-28T10:15:35.253Z,7.05
2022-09-28T10:18:09.530Z,6.72
2022-09-28T10:20:39.769Z,4.85
2022-09-28T10:23:15.740Z,5.35
2022-09-28T10:25:44.228Z,4.72
2022-09-28T10:28:19.173Z,6.65
2022-09-28T10:30:45.690Z,4.63
2022-09-28T10:33:47.879Z,3.38
2022-09-28T10:36:15.899Z,3.70
2022-09-28T10:38:47.774Z,4.43
2022-09-28T10:41:16.629Z,3.28
2022-09-28T10:44:06.862Z,5.90
2022-09-28T10:46:35.210Z,3.90
2022-09-28T10:49:30.576Z,6.68
2022-09-28T10:51:57.173Z,2.97
2022-09-28T10:54:28.316Z,6.13
2022-09-28T10:56:56.737Z,5.25
2022-09-28T10:59:29.127Z,2.65
2022-09-28T11:01:58.848Z,3.70
2022-09-28T11:04:33.044Z,5.80
2022-09-28T11:07:01.802Z,5.38
2022-09-28T11:09:31.498Z,8.40
2022-09-28T11:11:59.849Z,5.60
2022-09-28T11:14:41.858Z,4.05
2022-09-28T11:17:32.664Z,3.15
2022-09-28T11:20:29.217Z,4.95
2022-09-28T11:22:58.093Z,3.38
2022-09-28T11:25:29.249Z,4.30
2022-09-28T11:28:04.709Z,6.55
2022-09-28T11:30:49.991Z,3.70
2022-09-28T11:33:37.092Z,5.32
2022-09-28T11:36:08.370Z,4.28
2022-09-28T11:38:37.838Z,4.25
2022-09-28T11:41:10.216Z,3.17
2022-09-28T11:43:51.901Z,6.25
2022-09-28T11:46:27.580Z,2.38
2022-09-28T11:49:04.002Z,3.00
2022-09-28T11:51:34.756Z,4.10
2022-09-28T11:54:14.806Z,2.92
2022-09-28T11:56:48.621Z,3.80
2022-09-28T11:59:31.301Z,2.75
2022-09-28T12:02:11.683Z,10.98
2022-09-28T12:04:46.649Z,3.72
2022-09-28T12:07:23.207Z,3.92
2022-09-28T12:09:55.693Z,3.70
2022-09-28T12:12:30.299Z,5.00
2022-09-28T12:15:01.368Z,3.17
2022-09-28T12:17:52.957Z,3.20
2022-09-28T12:20:24.866Z,1.80
2022-09-28T12:23:24.326Z,3.10
2022-09-28T12:25:58.499Z,5.68
2022-09-28T12:28:40.729Z,2.90
2022-09-28T12:31:37.697Z,4.45
2022-09-28T12:34:05.065Z,4.85
2022-09-28T12:36:58.926Z,4.63
2022-09-28T12:39:58.469Z,2.85
2022-09-28T12:42:31.541Z,3.17
2022-09-28T12:45:06.863Z,3.25
2022-09-28T12:48:08.157Z,4.25
2022-09-28T12:51:03.565Z,6.18
2022-09-28T12:53:59.371Z,2.75
2022-09-28T12:56:43.830Z,4.82
2022-09-28T12:59:26.284Z,4.72
2022-09-28T13:02:17.803Z,5.72
2022-09-28T13:05:06.102Z,4.07
2022-09-28T13:08:09.990Z,4.53
2022-09-28T13:10:42.795Z,6.47
2022-09-28T13:13:41.408Z,2.85
2022-09-28T13:16:54.357Z,2.88
2022-09-28T13:19:50.258Z,4.60
2022-09-28T13:22:42.246Z,3.50
2022-09-28T13:25:16.902Z,6.90
2022-09-28T13:27:58.464Z,6.90
2022-09-28T13:30:25.734Z,2.25
2022-09-28T13:32:57.632Z,3.20
2022-09-28T13:35:24.849Z,3.45
2022-09-28T13:38:16.371Z,4.35
2022-09-28T13:41:11.489Z,3.08
2022-09-28T13:44:07.129Z,3.10
2022-09-28T13:46:48.956Z,2.22
2022-09-28T13:49:37.324Z,8.95
2022-09-28T13:52:30.066Z,4.22
2022-09-28T13:55:33.172Z,2.97
2022-09-28T13:58:14.623Z,3.38
2022-09-28T14:00:47.185Z,2.33
2022-09-28T14:03:19.640Z,2.05
2022-09-28T14:05:48.249Z,2.00
2022-09-28T14:08:31.029Z,2.10
2022-09-28T14:11:34.244Z,3.28
2022-09-28T14:14:06.030Z,1.80
2022-09-28T14:16:34.196Z,0.93
2022-09-28T14:19:03.638Z,2.80
2022-09-28T14:22:05.705Z,4.80
2022-09-28T14:24:50.709Z,4.75
2022-09-28T14:27:34.855Z,1.50
2022-09-28T14:30:13.274Z,1.58
2022-09-28T14:32:52.653Z,3.90
2022-09-28T14:35:41.639Z,3.05
2022-09-28T14:38:39.546Z,4.85
2022-09-28T14:41:15.292Z,8.00
2022-09-28T14:43:44.845Z,7.13
2022-09-28T14:46:11.343Z,5.13
2022-09-28T14:48:47.946Z,3.17
2022-09-28T14:51:26.777Z,4.63
2022-09-28T14:53:56.308Z,7.38
2022-09-28T14:56:22.773Z,5.43
2022-09-28T14:58:54.924Z,2.80
2022-09-28T15:01:24.687Z,3.70
2022-09-28T15:03:59.035Z,8.88
2022-09-28T15:06:28.929Z,4.20
2022-09-28T15:08:55.381Z,7.10
2022-09-28T15:11:24.762Z,4.55
2022-09-28T15:14:04.446Z,5.20
2022-09-28T15:16:31.189Z,3.10
2022-09-28T15:19:22.825Z,8.35
2022-09-28T15:21:51.076Z,3.33
2022-09-28T15:24:33.529Z,5.75
2022-09-28T15:27:13.902Z,6.10
2022-09-28T15:29:40.559Z,5.43
2022-09-28T15:32:23.468Z,4.80
2022-09-28T15:39:50.774Z,5.20
2022-09-28T15:42:18.328Z,2.75
2022-09-28T15:45:14.249Z,1.50
2022-09-28T15:47:43.593Z,2.55
2022-09-28T15:50:29.964Z,3.63
2022-09-28T15:53:02.530Z,2.38
2022-09-28T15:55:34.822Z,4.25
2022-09-28T15:58:17.107Z,2.55
2022-09-28T16:00:45.201Z,2.55
2022-09-28T16:03:11.627Z,2.28
2022-09-28T16:05:48.920Z,3.90
2022-09-28T16:08:22.075Z,2.97
2022-09-28T16:11:12.231Z,3.35
2022-09-28T16:13:57.189Z,3.65
2022-09-28T16:16:30.246Z,4.47
2022-09-28T16:19:00.649Z,3.15
2022-09-28T16:21:45.731Z,3.78
2022-09-28T16:24:29.055Z,2.47
2022-09-28T16:27:01.556Z,4.00
2022-09-28T16:29:42.844Z,3.05
2022-09-28T16:32:38.387Z,3.00
2022-09-28T16:35:13.511Z,5.53
2022-09-28T16:37:42.567Z,3.33
2022-09-28T16:40:09.990Z,5.00
2022-09-28T16:42:37.647Z,4.63
2022-09-28T16:45:05.340Z,3.80
2022-09-28T16:47:34.090Z,2.83
2022-09-28T16:50:02.456Z,4.13
2022-09-28T16:52:47.356Z,5.50
2022-09-28T16:55:39.541Z,19.13
2022-09-28T16:58:04.669Z,18.33
2022-09-28T17:00:32.441Z,8.82
2022-09-28T17:02:59.411Z,6.05
2022-09-28T17:05:25.925Z,4.63
2022-09-28T17:08:03.452Z,2.70
2022-09-28T17:10:50.215Z,2.88
2022-09-28T17:13:33.305Z,2.50
2022-09-28T17:16:01.758Z,1.85
2022-09-28T17:18:31.697Z,2.00
2022-09-28T17:21:03.246Z,2.15
2022-09-28T17:23:29.783Z,1.30
2022-09-28T17:25:56.734Z,2.75
2022-09-28T17:28:28.488Z,4.93
2022-09-28T17:30:54.968Z,3.85
2022-09-28T17:33:21.548Z,6.38
2022-09-28T17:35:48.427Z,3.63
2022-09-28T17:38:15.924Z,4.88
2022-09-28T17:40:43.967Z,3.00
2022-09-28T17:43:10.489Z,1.75
2022-09-28T17:45:41.719Z,2.22
2022-09-28T17:48:22.878Z,6.82
2022-09-28T17:50:49.407Z,7.03
2022-09-28T17:53:15.969Z,6.72
2022-09-28T17:55:45.669Z,6.32
2022-09-28T17:58:20.787Z,10.93
2022-09-28T18:00:48.592Z,8.77
2022-09-28T18:03:20.903Z,10.82
2022-09-28T18:05:49.998Z,8.10
2022-09-28T18:08:21.093Z,7.88
2022-09-28T18:10:47.729Z,6.22
2022-09-28T18:13:14.744Z,5.40
2022-09-28T18:15:41.636Z,6.30
2022-09-28T18:18:12.801Z,4.05
2022-09-28T18:20:39.613Z,11.05
2022-09-28T18:23:06.014Z,7.00
2022-09-28T18:25:32.472Z,6.53
2022-09-28T18:28:00.087Z,6.00
2022-09-28T18:30:27.997Z,3.58
2022-09-28T18:32:54.473Z,4.05
2022-09-28T18:35:23.159Z,6.43
2022-09-28T18:37:51.601Z,4.75
2022-09-28T18:40:18.394Z,3.38
2022-09-28T18:42:44.988Z,3.60
2022-09-28T18:45:11.909Z,3.97
2022-09-28T18:47:39.942Z,3.17
2022-09-28T18:50:07.241Z,2.38
2022-09-28T18:52:37.946Z,2.90
2022-09-28T18:55:05.921Z,2.72
2022-09-28T18:57:33.483Z,2.53
2022-09-28T19:00:00.868Z,2.22
2022-09-28T19:02:27.746Z,2.65
2022-09-28T19:04:54.273Z,3.53
2022-09-28T19:07:21.289Z,3.55
2022-09-28T19:09:47.764Z,3.30
2022-09-28T19:12:14.828Z,3.03
2022-09-28T19:14:41.382Z,2.40
2022-09-28T19:17:07.852Z,2.42
2022-09-28T19:19:34.339Z,5.15
2022-09-28T19:22:00.936Z,2.75
2022-09-28T19:24:27.611Z,3.15
2022-09-28T19:26:54.115Z,3.00
2022-09-28T19:29:20.814Z,5.85
2022-09-28T19:31:47.448Z,4.95
2022-09-28T19:34:14.451Z,4.30
2022-09-28T19:36:41.481Z,8.95
2022-09-28T19:39:08.005Z,9.95
2022-09-28T19:41:44.171Z,13.27
2022-09-28T19:44:26.975Z,7.85
2022-09-28T19:46:56.531Z,6.53
2022-09-28T19:52:13.290Z,10.45
2022-09-28T19:54:57.323Z,6.25
2022-09-28T19:57:26.171Z,6.53
2022-09-28T19:59:55.762Z,10.68
2022-09-28T20:02:24.525Z,6.70
2022-09-28T20:04:51.035Z,6.32
2022-09-28T20:07:17.533Z,10.98
2022-09-28T20:09:44.057Z,9.23
2022-09-28T20:12:11.182Z,11.18
2022-09-28T20:14:40.105Z,8.60
2022-09-28T20:17:07.194Z,10.48
2022-09-28T20:19:33.704Z,15.38
2022-09-28T20:22:02.730Z,9.95
2022-09-28T20:24:29.659Z,9.07
2022-09-28T20:26:56.243Z,9.18
2022-09-28T20:29:24.247Z,10.73
2022-09-28T20:31:51.821Z,12.27
2022-09-28T20:34:18.403Z,11.25
2022-09-28T20:36:44.893Z,11.40
2022-09-28T20:39:12.307Z,10.73
2022-09-28T20:41:38.828Z,11.38
2022-09-28T20:44:06.665Z,12.32
2022-09-28T20:46:36.985Z,11.55
2022-09-28T20:49:04.458Z,10.63
2022-09-28T20:51:31.139Z,11.23
2022-09-28T20:53:58.874Z,10.55
2022-09-28T20:56:26.941Z,9.80
2022-09-28T20:58:54.404Z,11.50
2022-09-28T21:01:20.931Z,11.13
2022-09-28T21:03:53.239Z,8.75
2022-09-28T21:06:21.972Z,9.00
2022-09-28T21:08:49.561Z,9.45
2022-09-28T21:11:18.024Z,9.48
2022-09-28T21:13:45.232Z,10.38
2022-09-28T21:16:14.595Z,10.60
2022-09-28T21:18:41.356Z,10.35
2022-09-28T21:21:19.439Z,10.50
2022-09-28T21:23:46.672Z,10.10
2022-09-28T21:26:24.834Z,12.20
2022-09-28T21:29:02.977Z,11.88
2022-09-28T21:31:38.436Z,8.73
2022-09-28T21:34:04.957Z,8.27
2022-09-28T21:36:31.860Z,9.38
2022-09-28T21:38:58.361Z,10.57
2022-09-28T21:41:25.393Z,9.02
2022-09-28T21:43:52.380Z,8.70
2022-09-28T21:46:18.932Z,9.02
2022-09-28T21:48:45.514Z,7.32
2022-09-28T21:51:15.106Z,9.98
2022-09-28T21:53:42.595Z,12.43
2022-09-28T21:56:10.951Z,8.85
2022-09-28T21:58:37.694Z,11.18
2022-09-28T22:01:14.688Z,8.63
2022-09-28T22:03:43.938Z,8.90
2022-09-28T22:06:11.341Z,8.07
2022-09-28T22:08:38.391Z,8.80
2022-09-28T22:11:06.486Z,5.65
2022-09-28T22:13:39.398Z,7.32
2022-09-28T22:16:06.042Z,7.75
2022-09-28T22:18:34.003Z,4.82
2022-09-28T22:21:02.800Z,9.02
2022-09-28T22:23:30.049Z,8.63
2022-09-28T22:26:00.419Z,12.52
2022-09-28T22:28:28.081Z,9.95
2022-09-28T22:30:54.821Z,6.45
2022-09-28T22:33:21.442Z,8.02
2022-09-28T22:35:49.204Z,7.13
2022-09-28T22:38:15.832Z,7.60
2022-09-28T22:40:47.067Z,7.32
2022-09-28T22:43:13.615Z,12.05
2022-09-28T22:45:40.047Z,10.45
2022-09-28T22:48:07.158Z,7.78
2022-09-28T22:50:34.368Z,7.82
2022-09-28T22:53:01.947Z,8.07
2022-09-28T22:55:29.164Z,7.53
2022-09-28T22:57:55.671Z,16.50
2022-09-28T23:00:22.224Z,8.48
2022-09-28T23:02:48.678Z,8.75
2022-09-28T23:05:16.941Z,10.73
2022-09-28T23:07:43.614Z,11.38
2022-09-28T23:10:10.094Z,10.43
2022-09-28T23:12:36.579Z,7.25
2022-09-28T23:15:03.148Z,9.48
2022-09-28T23:17:29.595Z,14.68
2022-09-28T23:19:55.997Z,11.52
2022-09-28T23:22:22.513Z,9.38
2022-09-28T23:24:48.952Z,8.43
2022-09-28T23:27:15.405Z,9.77
2022-09-28T23:29:46.787Z,9.90
2022-09-28T23:32:13.950Z,6.57
2022-09-28T23:34:40.365Z,17.15
2022-09-28T23:37:07.017Z,10.98
2022-09-28T23:39:33.499Z,8.52
2022-09-28T23:42:00.155Z,13.30
2022-09-28T23:44:31.195Z,7.57
2022-09-28T23:46:57.873Z,8.27
2022-09-28T23:49:24.338Z,9.32
2022-09-28T23:51:50.771Z,9.82
2022-09-28T23:54:17.240Z,8.27
2022-09-28T23:56:43.708Z,9.38
2022-09-28T23:59:10.113Z,10.35
